Terminal Aerodrome Forecast
Issued by NWS Shreveport, LA

Current Version | Previous Version | Text Only | Print | Product List | Glossary On
Versions: 1 2 3 4 5 6 7 8 9 10 11 12 13
000
FTUS44 KSHV 231700
TAFTYR
TAF
KTYR 231740Z 2318/2418 VRB03KT P6SM SCT040
     FM240000 VRB05KT P6SM FEW050 SCT250
     FM240600 VRB03KT P6SM SKC
     FM241600 VRB03KT P6SM SCT030=

USA.gov is the U.S. government's official web portal to all federal, state and local government web resources and services.